createdAt,value
2023-05-20T00:05:11.804Z,208.01
2023-05-20T00:08:18.901Z,209.37
2023-05-20T00:11:42.536Z,205.57
2023-05-20T00:15:03.720Z,211.75
2023-05-20T00:18:24.618Z,195.50
2023-05-20T00:21:54.307Z,201.86
2023-05-20T00:25:07.653Z,203.57
2023-05-20T00:28:16.228Z,208.28
2023-05-20T00:31:22.949Z,209.27
2023-05-20T00:34:28.932Z,211.87
2023-05-20T00:37:35.865Z,227.73
2023-05-20T00:40:41.868Z,227.83
2023-05-20T00:43:51.365Z,208.25
2023-05-20T00:46:59.044Z,217.22
2023-05-20T00:50:21.974Z,214.12
2023-05-20T00:53:54.040Z,214.80
2023-05-20T00:57:15.734Z,212.69
2023-05-20T01:00:39.492Z,222.59
2023-05-20T01:04:00.564Z,216.49
2023-05-20T01:07:10.249Z,217.74
2023-05-20T01:10:16.594Z,212.52
2023-05-20T01:13:49.525Z,216.32
2023-05-20T01:17:09.740Z,214.24
2023-05-20T01:20:19.183Z,213.75
2023-05-20T01:23:35.883Z,214.59
2023-05-20T01:26:44.141Z,220.75
2023-05-20T01:29:55.939Z,220.01
2023-05-20T01:33:10.990Z,213.34
2023-05-20T01:36:23.136Z,221.75
2023-05-20T01:39:37.634Z,219.91
2023-05-20T01:42:47.082Z,220.15
2023-05-20T01:45:53.433Z,223.69
2023-05-20T01:49:01.359Z,223.02
2023-05-20T01:52:08.878Z,226.68
2023-05-20T01:55:26.577Z,219.45
2023-05-20T01:58:32.441Z,216.16
2023-05-20T02:01:49.519Z,222.36
2023-05-20T02:04:58.122Z,220.83
2023-05-20T02:08:04.946Z,226.05
2023-05-20T02:11:13.735Z,227.48
2023-05-20T02:14:27.032Z,216.07
2023-05-20T02:17:36.649Z,222.91
2023-05-20T02:20:43.618Z,224.23
2023-05-20T02:23:50.864Z,230.98
2023-05-20T02:27:00.574Z,229.13
2023-05-20T02:30:06.933Z,227.12
2023-05-20T02:33:14.301Z,223.08
2023-05-20T02:36:26.302Z,229.86
2023-05-20T02:39:33.346Z,231.25
2023-05-20T02:42:42.132Z,234.46
2023-05-20T02:45:49.343Z,232.31
2023-05-20T02:48:55.542Z,222.73
2023-05-20T02:52:17.887Z,201.07
2023-05-20T02:55:40.224Z,195.12
2023-05-20T02:59:15.499Z,189.17
2023-05-20T03:02:36.850Z,176.05
2023-05-20T03:05:50.740Z,184.83
2023-05-20T03:08:59.644Z,189.77
2023-05-20T03:12:06.896Z,176.01
2023-05-20T03:15:15.753Z,179.50
2023-05-20T03:18:22.550Z,171.30
2023-05-20T03:21:44.196Z,156.19
2023-05-20T03:25:18.061Z,152.04
2023-05-20T03:28:40.341Z,132.87
2023-05-20T03:32:04.857Z,127.61
2023-05-20T03:35:36.746Z,129.46
2023-05-20T03:38:58.411Z,124.06
2023-05-20T03:42:05.308Z,122.98
2023-05-20T03:45:13.117Z,124.44
2023-05-20T03:48:34.019Z,126.37
2023-05-20T03:51:40.119Z,127.91
2023-05-20T03:54:51.474Z,123.68
2023-05-20T03:58:29.812Z,129.30
2023-05-20T04:05:41.608Z,120.66
2023-05-20T04:09:11.793Z,124.69
2023-05-20T04:12:33.582Z,112.16
2023-05-20T04:15:54.726Z,111.24
2023-05-20T04:19:03.113Z,106.54
2023-05-20T04:22:16.231Z,104.92
2023-05-20T04:25:23.381Z,103.33
2023-05-20T04:28:31.666Z,101.57
2023-05-20T04:31:38.835Z,101.70
2023-05-20T04:34:57.711Z,93.74
2023-05-20T04:38:07.802Z,94.92
2023-05-20T04:41:14.526Z,96.49
2023-05-20T04:44:21.390Z,95.33
2023-05-20T04:47:27.774Z,90.75
2023-05-20T04:50:48.982Z,89.98
2023-05-20T04:54:12.558Z,91.62
2023-05-20T04:57:34.868Z,95.15
2023-05-20T05:00:42.082Z,95.64
2023-05-20T05:03:50.536Z,92.90
2023-05-20T05:07:01.349Z,90.67
2023-05-20T05:10:11.920Z,90.61
2023-05-20T05:13:22.065Z,91.34
2023-05-20T05:16:28.654Z,88.06
2023-05-20T05:19:35.766Z,86.78
2023-05-20T05:22:57.382Z,86.80
2023-05-20T05:26:23.139Z,91.91
2023-05-20T05:29:45.362Z,93.22
2023-05-20T05:33:06.777Z,91.21
2023-05-20T05:36:28.929Z,91.01
2023-05-20T05:39:50.504Z,91.36
2023-05-20T05:43:14.369Z,90.46
2023-05-20T05:46:36.108Z,92.18
2023-05-20T05:50:00.156Z,94.13
2023-05-20T05:53:34.738Z,97.31
2023-05-20T05:56:56.996Z,95.38
2023-05-20T06:00:22.878Z,95.62
2023-05-20T06:03:45.970Z,94.71
2023-05-20T06:07:07.228Z,100.63
2023-05-20T06:10:28.200Z,101.40
2023-05-20T06:13:49.636Z,103.49
2023-05-20T06:17:13.339Z,106.22
2023-05-20T06:20:35.016Z,102.86
2023-05-20T06:23:57.200Z,97.49
2023-05-20T06:27:18.238Z,98.95
2023-05-20T06:30:39.083Z,101.34
2023-05-20T06:34:08.404Z,103.66
2023-05-20T06:37:30.358Z,106.23
2023-05-20T06:40:44.103Z,102.14
2023-05-20T06:43:53.438Z,96.35
2023-05-20T06:47:24.271Z,100.33
2023-05-20T06:50:34.965Z,94.64
2023-05-20T06:53:47.672Z,96.09
2023-05-20T06:56:54.384Z,95.28
2023-05-20T07:00:02.601Z,97.13
2023-05-20T07:03:26.717Z,93.34
2023-05-20T07:06:50.467Z,92.64
2023-05-20T07:10:12.977Z,93.12
2023-05-20T07:13:34.392Z,93.65
2023-05-20T07:16:55.365Z,97.63
2023-05-20T07:20:36.190Z,118.63
2023-05-20T07:24:04.267Z,107.47
2023-05-20T07:27:10.745Z,100.73
2023-05-20T07:30:17.760Z,97.23
2023-05-20T07:33:33.210Z,98.80
2023-05-20T07:36:40.285Z,97.80
2023-05-20T07:39:49.053Z,97.41
2023-05-20T07:42:57.488Z,106.55
2023-05-20T07:46:06.402Z,110.79
2023-05-20T07:49:13.552Z,101.30
2023-05-20T07:52:19.995Z,99.25
2023-05-20T07:55:36.546Z,97.38
2023-05-20T07:58:45.215Z,100.09
2023-05-20T08:01:52.479Z,99.87
2023-05-20T08:05:00.115Z,101.12
2023-05-20T08:08:07.920Z,102.32
2023-05-20T08:11:27.619Z,105.30
2023-05-20T08:14:35.141Z,105.62
2023-05-20T08:17:57.611Z,106.79
2023-05-20T08:21:19.442Z,111.29
2023-05-20T08:24:40.517Z,111.27
2023-05-20T08:28:06.303Z,109.64
2023-05-20T08:31:41.169Z,109.28
2023-05-20T08:35:03.902Z,113.95
2023-05-20T08:38:31.031Z,112.87
2023-05-20T08:41:52.988Z,110.06
2023-05-20T08:45:26.761Z,110.12
2023-05-20T08:48:50.005Z,115.73
2023-05-20T08:52:16.902Z,119.17
2023-05-20T08:55:47.043Z,126.70
2023-05-20T08:59:08.298Z,127.77
2023-05-20T09:02:31.836Z,126.24
2023-05-20T09:05:52.987Z,126.50
2023-05-20T09:09:15.074Z,132.26
2023-05-20T09:12:36.105Z,131.54
2023-05-20T09:15:57.860Z,128.24
2023-05-20T09:19:24.563Z,130.78
2023-05-20T09:22:45.951Z,128.47
2023-05-20T09:26:07.963Z,136.49
2023-05-20T09:29:29.874Z,140.57
2023-05-20T09:32:57.303Z,143.18
2023-05-20T09:36:22.491Z,145.48
2023-05-20T09:39:56.917Z,149.32
2023-05-20T09:43:07.570Z,145.37
2023-05-20T09:46:14.514Z,157.72
2023-05-20T09:49:23.102Z,154.57
2023-05-20T09:52:32.347Z,159.41
2023-05-20T09:55:41.476Z,149.52
2023-05-20T09:58:51.207Z,158.50
2023-05-20T10:02:12.549Z,153.78
2023-05-20T10:05:24.955Z,157.54
2023-05-20T10:09:08.724Z,152.97
2023-05-20T10:12:36.828Z,148.68
2023-05-20T10:16:00.909Z,150.10
2023-05-20T10:19:29.159Z,148.17
2023-05-20T10:22:36.202Z,147.58
2023-05-20T10:25:55.439Z,148.07
2023-05-20T10:29:02.361Z,147.23
2023-05-20T10:32:08.891Z,149.70
2023-05-20T10:35:15.795Z,144.86
2023-05-20T10:38:22.429Z,140.80
2023-05-20T10:41:35.165Z,137.04
2023-05-20T10:45:11.863Z,134.84
2023-05-20T10:48:29.428Z,131.61
2023-05-20T10:51:40.439Z,136.23
2023-05-20T10:54:50.154Z,139.34
2023-05-20T10:58:02.462Z,139.76
2023-05-20T11:01:09.676Z,136.69
2023-05-20T11:04:19.960Z,145.00
2023-05-20T11:07:31.427Z,144.43
2023-05-20T11:10:38.203Z,147.59
2023-05-20T11:13:47.835Z,147.64
2023-05-20T11:17:00.203Z,152.66
2023-05-20T11:20:08.098Z,147.70
2023-05-20T11:23:18.657Z,149.18
2023-05-20T11:26:25.697Z,146.90
2023-05-20T11:29:35.556Z,146.29
2023-05-20T11:32:42.671Z,149.02
2023-05-20T11:35:50.440Z,153.02
2023-05-20T11:38:57.364Z,155.25
2023-05-20T11:42:03.827Z,156.75
2023-05-20T11:45:28.558Z,161.39
2023-05-20T11:48:56.695Z,167.00
2023-05-20T11:52:17.860Z,171.23
2023-05-20T11:55:49.503Z,173.46
2023-05-20T11:59:13.758Z,175.77
2023-05-20T12:02:37.940Z,175.46
2023-05-20T12:05:45.264Z,170.21
2023-05-20T12:08:51.539Z,173.40
2023-05-20T12:12:20.616Z,172.85
2023-05-20T12:15:26.833Z,175.10
2023-05-20T12:18:36.526Z,168.75
2023-05-20T12:21:42.602Z,175.44
2023-05-20T12:24:52.232Z,170.87
2023-05-20T12:28:00.440Z,174.66
2023-05-20T12:31:21.511Z,171.55
2023-05-20T12:34:51.818Z,174.88
2023-05-20T12:38:14.931Z,175.28
2023-05-20T12:41:35.935Z,173.43
2023-05-20T12:44:56.965Z,177.25
2023-05-20T12:48:04.503Z,170.42
2023-05-20T12:51:13.053Z,169.40
2023-05-20T12:54:21.310Z,168.31
2023-05-20T12:57:31.828Z,173.55
2023-05-20T13:00:38.957Z,169.06
2023-05-20T13:03:45.177Z,170.06
2023-05-20T13:06:56.090Z,166.80
2023-05-20T13:10:02.475Z,161.45
2023-05-20T13:13:24.295Z,164.17
2023-05-20T13:16:45.371Z,165.21
2023-05-20T13:20:06.986Z,164.36
2023-05-20T13:23:30.430Z,166.16
2023-05-20T13:26:51.849Z,163.29
2023-05-20T13:30:02.163Z,165.17
2023-05-20T13:33:08.167Z,164.43
2023-05-20T13:36:15.991Z,162.26
2023-05-20T13:39:24.479Z,155.37
2023-05-20T13:42:31.942Z,159.61
2023-05-20T13:45:37.889Z,150.71
2023-05-20T13:48:44.783Z,155.17
2023-05-20T13:51:51.245Z,153.69
2023-05-20T13:55:02.918Z,151.92
2023-05-20T13:58:12.805Z,155.59
2023-05-20T14:05:19.226Z,155.59
2023-05-20T14:08:26.604Z,151.11
2023-05-20T14:11:54.242Z,154.11
2023-05-20T14:15:15.404Z,152.26
2023-05-20T14:18:36.464Z,150.56
2023-05-20T14:21:59.195Z,152.98
2023-05-20T14:25:20.521Z,156.43
2023-05-20T14:28:30.048Z,156.32
2023-05-20T14:31:36.074Z,158.30
2023-05-20T14:34:43.043Z,149.90
2023-05-20T14:37:49.166Z,149.66
2023-05-20T14:40:56.168Z,147.55
2023-05-20T14:44:04.881Z,142.03
2023-05-20T14:47:11.838Z,147.06
2023-05-20T14:50:17.966Z,138.46
2023-05-20T14:53:25.930Z,139.30
2023-05-20T14:56:31.960Z,139.13
2023-05-20T14:59:42.016Z,141.62
2023-05-20T15:02:48.095Z,136.98
2023-05-20T15:05:55.153Z,138.77
2023-05-20T15:09:01.201Z,138.87
2023-05-20T15:12:22.845Z,137.21
2023-05-20T15:15:32.141Z,131.73
2023-05-20T15:18:39.363Z,126.32
2023-05-20T15:21:45.442Z,131.55
2023-05-20T15:24:52.195Z,127.39
2023-05-20T15:27:58.230Z,120.32
2023-05-20T15:31:07.754Z,120.88
2023-05-20T15:34:13.851Z,126.45
2023-05-20T15:37:21.852Z,121.01
2023-05-20T15:40:28.493Z,117.73
2023-05-20T15:43:35.591Z,118.78
2023-05-20T15:46:44.458Z,115.54
2023-05-20T15:49:51.806Z,115.92
2023-05-20T15:52:58.416Z,116.22
2023-05-20T15:56:10.838Z,119.35
2023-05-20T15:59:33.648Z,117.90
2023-05-20T16:03:00.036Z,120.34
2023-05-20T16:06:23.159Z,119.63
2023-05-20T16:09:44.091Z,119.59
2023-05-20T16:13:10.772Z,124.16
2023-05-20T16:16:33.201Z,141.64
2023-05-20T16:19:58.901Z,123.18
2023-05-20T16:23:19.863Z,123.98
2023-05-20T16:26:42.231Z,124.04
2023-05-20T16:30:03.352Z,118.39
2023-05-20T16:33:24.298Z,123.35
2023-05-20T16:36:48.220Z,122.64
2023-05-20T16:39:55.079Z,124.19
2023-05-20T16:43:05.076Z,126.38
2023-05-20T16:46:14.921Z,123.76
2023-05-20T16:49:20.996Z,122.12
2023-05-20T16:52:30.503Z,130.37
2023-05-20T16:55:36.671Z,125.57
2023-05-20T16:58:57.606Z,131.44
2023-05-20T17:02:18.619Z,130.38
2023-05-20T17:05:39.534Z,128.56
2023-05-20T17:09:05.349Z,129.52
2023-05-20T17:12:26.403Z,130.06
2023-05-20T17:15:47.298Z,135.82
2023-05-20T17:18:56.684Z,129.76
2023-05-20T17:22:08.594Z,130.84
2023-05-20T17:25:18.109Z,133.86
2023-05-20T17:28:24.421Z,140.42
2023-05-20T17:31:31.192Z,140.00
2023-05-20T17:34:37.240Z,141.34
2023-05-20T17:37:44.108Z,144.97
2023-05-20T17:40:52.726Z,144.97
2023-05-20T17:43:59.715Z,146.73
2023-05-20T17:47:12.046Z,148.62
2023-05-20T17:50:19.003Z,157.28
2023-05-20T17:53:30.589Z,159.92
2023-05-20T17:56:40.070Z,157.75
2023-05-20T17:59:46.281Z,158.29
2023-05-20T18:02:58.034Z,159.47
2023-05-20T18:06:06.441Z,162.91
2023-05-20T18:09:13.568Z,165.92
2023-05-20T18:12:22.196Z,164.84
2023-05-20T18:15:29.131Z,161.87
2023-05-20T18:18:35.588Z,164.61
2023-05-20T18:21:46.393Z,166.40
2023-05-20T18:24:53.037Z,170.80
2023-05-20T18:28:03.752Z,171.08
2023-05-20T18:31:10.993Z,178.20
2023-05-20T18:34:22.569Z,172.50
2023-05-20T18:37:29.271Z,177.14
2023-05-20T18:40:50.611Z,176.97
2023-05-20T18:44:14.507Z,179.87
2023-05-20T18:47:35.787Z,184.51
2023-05-20T18:50:57.165Z,201.87
2023-05-20T18:54:18.237Z,210.44
2023-05-20T18:57:39.595Z,206.14
2023-05-20T19:00:49.011Z,202.19
2023-05-20T19:03:55.633Z,206.27
2023-05-20T19:07:03.975Z,205.08
2023-05-20T19:10:12.615Z,204.41
2023-05-20T19:13:19.975Z,202.12
2023-05-20T19:16:29.663Z,198.44
2023-05-20T19:19:36.892Z,193.41
2023-05-20T19:22:43.499Z,197.61
2023-05-20T19:25:57.058Z,195.56
2023-05-20T19:29:03.302Z,197.27
2023-05-20T19:32:12.882Z,200.30
2023-05-20T19:35:19.521Z,195.97
2023-05-20T19:38:29.218Z,202.40
2023-05-20T19:41:35.442Z,193.32
2023-05-20T19:44:42.527Z,184.63
2023-05-20T19:47:51.403Z,185.41
2023-05-20T19:50:58.409Z,184.45
2023-05-20T19:54:04.736Z,224.06
2023-05-20T19:57:12.183Z,260.84
2023-05-20T20:00:19.230Z,262.61
2023-05-20T20:03:28.877Z,233.45
2023-05-20T20:06:35.091Z,207.04
2023-05-20T20:09:42.127Z,189.12
2023-05-20T20:12:50.228Z,185.48
2023-05-20T20:15:57.321Z,172.86
2023-05-20T20:19:23.228Z,177.29
2023-05-20T20:22:45.168Z,166.31
2023-05-20T20:26:06.174Z,158.61
2023-05-20T20:29:28.714Z,163.92
2023-05-20T20:32:50.761Z,163.71
2023-05-20T20:36:14.622Z,160.18
2023-05-20T20:39:23.118Z,164.44
2023-05-20T20:42:32.651Z,166.19
2023-05-20T20:45:41.022Z,161.81
2023-05-20T20:48:48.645Z,164.61
2023-05-20T20:51:58.210Z,165.39
2023-05-20T20:55:04.943Z,159.16
2023-05-20T20:58:12.611Z,158.49
2023-05-20T21:01:36.603Z,157.03
2023-05-20T21:04:59.561Z,157.57
2023-05-20T21:08:28.088Z,162.50
2023-05-20T21:11:49.649Z,164.67
2023-05-20T21:15:15.276Z,161.32
2023-05-20T21:18:36.282Z,159.98
2023-05-20T21:21:57.259Z,156.37
2023-05-20T21:25:21.321Z,158.83
2023-05-20T21:28:42.506Z,154.18
2023-05-20T21:32:03.531Z,152.93
2023-05-20T21:35:25.557Z,151.26
2023-05-20T21:38:50.196Z,151.83
2023-05-20T21:42:13.873Z,148.61
2023-05-20T21:45:35.756Z,143.85
2023-05-20T21:48:57.154Z,142.04
2023-05-20T21:52:20.781Z,149.38
2023-05-20T21:55:42.333Z,149.56
2023-05-20T21:59:06.012Z,152.21
2023-05-20T22:02:18.465Z,148.50
2023-05-20T22:05:25.040Z,154.11
2023-05-20T22:08:36.354Z,151.67
2023-05-20T22:11:45.397Z,148.48
2023-05-20T22:14:54.985Z,154.83
2023-05-20T22:18:05.320Z,155.05
2023-05-20T22:21:16.439Z,153.05
2023-05-20T22:24:22.479Z,151.81
2023-05-20T22:27:29.674Z,154.58
2023-05-20T22:30:38.648Z,156.01
2023-05-20T22:33:45.454Z,155.53
2023-05-20T22:36:53.816Z,157.14
2023-05-20T22:40:00.948Z,156.47
2023-05-20T22:43:06.985Z,152.83
2023-05-20T22:46:16.486Z,156.10
2023-05-20T22:49:24.076Z,153.59
2023-05-20T22:52:31.089Z,153.86
2023-05-20T22:55:39.029Z,152.32
2023-05-20T22:58:46.106Z,153.66
2023-05-20T23:01:59.517Z,151.65
2023-05-20T23:05:06.986Z,158.24
2023-05-20T23:08:13.054Z,160.35
2023-05-20T23:11:20.059Z,159.15
2023-05-20T23:14:26.345Z,159.02
2023-05-20T23:17:36.174Z,153.33
2023-05-20T23:20:42.141Z,154.09
2023-05-20T23:23:49.013Z,156.15
2023-05-20T23:26:55.722Z,162.06
2023-05-20T23:30:08.739Z,160.88
2023-05-20T23:33:24.796Z,160.57
2023-05-20T23:36:34.826Z,159.23
2023-05-20T23:39:40.992Z,156.78
2023-05-20T23:42:47.876Z,165.75
2023-05-20T23:45:53.846Z,159.28
2023-05-20T23:49:03.428Z,160.00
2023-05-20T23:52:13.680Z,168.46
2023-05-20T23:55:20.514Z,170.57
2023-05-20T23:58:26.633Z,174.12
